sensor_id;sensor_type;location;lat;lon;timestamp;temperature;humidity
43087;DHT22;28708;52.224;6.924;2023-04-06T00:01:38;4.10;99.90
43087;DHT22;28708;52.224;6.924;2023-04-06T00:04:03;4.00;99.90
43087;DHT22;28708;52.224;6.924;2023-04-06T00:06:29;3.90;99.90
43087;DHT22;28708;52.224;6.924;2023-04-06T00:08:55;3.90;99.90
43087;DHT22;28708;52.224;6.924;2023-04-06T00:11:21;3.80;99.90
43087;DHT22;28708;52.224;6.924;2023-04-06T00:13:47;3.80;99.90
43087;DHT22;28708;52.224;6.924;2023-04-06T00:16:13;3.80;99.90
43087;DHT22;28708;52.224;6.924;2023-04-06T00:18:39;3.80;99.90
43087;DHT22;28708;52.224;6.924;2023-04-06T00:21:04;3.80;99.90
43087;DHT22;28708;52.224;6.924;2023-04-06T00:23:30;3.80;99.90
43087;DHT22;28708;52.224;6.924;2023-04-06T00:25:56;3.80;99.90
43087;DHT22;28708;52.224;6.924;2023-04-06T00:28:21;3.80;99.90
43087;DHT22;28708;52.224;6.924;2023-04-06T00:30:51;3.70;99.90
43087;DHT22;28708;52.224;6.924;2023-04-06T00:33:19;3.70;99.90
43087;DHT22;28708;52.224;6.924;2023-04-06T00:35:45;3.70;99.90
43087;DHT22;28708;52.224;6.924;2023-04-06T00:38:12;3.70;99.90
43087;DHT22;28708;52.224;6.924;2023-04-06T00:40:38;3.60;99.90
43087;DHT22;28708;52.224;6.924;2023-04-06T00:43:05;3.60;99.90
43087;DHT22;28708;52.224;6.924;2023-04-06T00:45:31;3.50;99.90
43087;DHT22;28708;52.224;6.924;2023-04-06T00:47:57;3.50;99.90
43087;DHT22;28708;52.224;6.924;2023-04-06T00:50:23;3.50;99.90
43087;DHT22;28708;52.224;6.924;2023-04-06T00:52:49;3.50;99.90
43087;DHT22;28708;52.224;6.924;2023-04-06T00:55:17;3.50;99.90
43087;DHT22;28708;52.224;6.924;2023-04-06T00:57:43;3.30;99.90
43087;DHT22;28708;52.224;6.924;2023-04-06T01:00:09;3.30;99.90
43087;DHT22;28708;52.224;6.924;2023-04-06T01:02:36;3.30;99.90
43087;DHT22;28708;52.224;6.924;2023-04-06T01:05:02;3.30;99.90
43087;DHT22;28708;52.224;6.924;2023-04-06T01:07:40;3.30;99.90
43087;DHT22;28708;52.224;6.924;2023-04-06T01:10:10;3.20;99.90
43087;DHT22;28708;52.224;6.924;2023-04-06T01:12:37;3.20;99.90
43087;DHT22;28708;52.224;6.924;2023-04-06T01:15:12;3.20;99.90
43087;DHT22;28708;52.224;6.924;2023-04-06T01:17:42;3.30;99.90
43087;DHT22;28708;52.224;6.924;2023-04-06T01:20:12;3.20;99.90
43087;DHT22;28708;52.224;6.924;2023-04-06T01:22:38;3.20;99.90
43087;DHT22;28708;52.224;6.924;2023-04-06T01:25:04;3.20;99.90
43087;DHT22;28708;52.224;6.924;2023-04-06T01:27:50;3.10;99.90
43087;DHT22;28708;52.224;6.924;2023-04-06T01:30:45;3.10;99.90
43087;DHT22;28708;52.224;6.924;2023-04-06T01:33:22;3.10;99.90
43087;DHT22;28708;52.224;6.924;2023-04-06T01:36:05;3.10;99.90
43087;DHT22;28708;52.224;6.924;2023-04-06T01:38:30;3.10;99.90
43087;DHT22;28708;52.224;6.924;2023-04-06T01:40:56;3.00;99.90
43087;DHT22;28708;52.224;6.924;2023-04-06T01:43:24;3.00;99.90
43087;DHT22;28708;52.224;6.924;2023-04-06T01:46:03;2.90;99.90
43087;DHT22;28708;52.224;6.924;2023-04-06T01:48:33;2.70;99.90
43087;DHT22;28708;52.224;6.924;2023-04-06T01:51:04;2.60;99.90
43087;DHT22;28708;52.224;6.924;2023-04-06T01:53:33;2.60;99.90
43087;DHT22;28708;52.224;6.924;2023-04-06T01:56:04;2.60;99.90
43087;DHT22;28708;52.224;6.924;2023-04-06T01:58:34;2.50;99.90
43087;DHT22;28708;52.224;6.924;2023-04-06T02:01:00;2.50;99.90
43087;DHT22;28708;52.224;6.924;2023-04-06T02:03:30;2.50;99.90
43087;DHT22;28708;52.224;6.924;2023-04-06T02:06:04;2.60;99.90
43087;DHT22;28708;52.224;6.924;2023-04-06T02:08:34;2.60;99.90
43087;DHT22;28708;52.224;6.924;2023-04-06T02:10:59;2.60;99.90
43087;DHT22;28708;52.224;6.924;2023-04-06T02:13:38;2.60;99.90
43087;DHT22;28708;52.224;6.924;2023-04-06T02:16:04;2.50;99.90
43087;DHT22;28708;52.224;6.924;2023-04-06T02:18:30;2.50;99.90
43087;DHT22;28708;52.224;6.924;2023-04-06T02:20:56;2.50;99.90
43087;DHT22;28708;52.224;6.924;2023-04-06T02:23:22;2.50;99.90
43087;DHT22;28708;52.224;6.924;2023-04-06T02:25:47;2.40;99.90
43087;DHT22;28708;52.224;6.924;2023-04-06T02:28:13;2.40;99.90
43087;DHT22;28708;52.224;6.924;2023-04-06T02:30:39;2.40;99.90
43087;DHT22;28708;52.224;6.924;2023-04-06T02:33:05;2.50;99.90
43087;DHT22;28708;52.224;6.924;2023-04-06T02:35:38;2.40;99.90
43087;DHT22;28708;52.224;6.924;2023-04-06T02:38:04;2.40;99.90
43087;DHT22;28708;52.224;6.924;2023-04-06T02:40:30;2.40;99.90
43087;DHT22;28708;52.224;6.924;2023-04-06T02:42:59;2.40;99.90
43087;DHT22;28708;52.224;6.924;2023-04-06T02:45:29;2.40;99.90
43087;DHT22;28708;52.224;6.924;2023-04-06T02:47:55;2.40;99.90
43087;DHT22;28708;52.224;6.924;2023-04-06T02:50:21;2.20;99.90
43087;DHT22;28708;52.224;6.924;2023-04-06T02:52:54;2.20;99.90
43087;DHT22;28708;52.224;6.924;2023-04-06T02:55:20;2.20;99.90
43087;DHT22;28708;52.224;6.924;2023-04-06T02:57:46;2.20;99.90
43087;DHT22;28708;52.224;6.924;2023-04-06T03:00:12;2.20;99.90
43087;DHT22;28708;52.224;6.924;2023-04-06T03:02:39;2.20;99.90
43087;DHT22;28708;52.224;6.924;2023-04-06T03:05:09;2.10;99.90
43087;DHT22;28708;52.224;6.924;2023-04-06T03:07:39;2.10;99.90
43087;DHT22;28708;52.224;6.924;2023-04-06T03:10:08;2.10;99.90
43087;DHT22;28708;52.224;6.924;2023-04-06T03:12:35;2.00;99.90
43087;DHT22;28708;52.224;6.924;2023-04-06T03:15:10;2.00;99.90
43087;DHT22;28708;52.224;6.924;2023-04-06T03:17:38;2.00;99.90
43087;DHT22;28708;52.224;6.924;2023-04-06T03:20:09;2.00;99.90
43087;DHT22;28708;52.224;6.924;2023-04-06T03:22:35;1.90;99.90
43087;DHT22;28708;52.224;6.924;2023-04-06T03:25:01;1.90;99.90
43087;DHT22;28708;52.224;6.924;2023-04-06T03:27:28;1.90;99.90
43087;DHT22;28708;52.224;6.924;2023-04-06T03:29:54;1.90;99.90
43087;DHT22;28708;52.224;6.924;2023-04-06T03:32:26;1.80;99.90
43087;DHT22;28708;52.224;6.924;2023-04-06T03:34:52;1.80;99.90
43087;DHT22;28708;52.224;6.924;2023-04-06T03:37:18;1.80;99.90
43087;DHT22;28708;52.224;6.924;2023-04-06T03:39:49;1.80;99.90
43087;DHT22;28708;52.224;6.924;2023-04-06T03:42:20;1.80;99.90
43087;DHT22;28708;52.224;6.924;2023-04-06T03:44:52;1.70;99.90
43087;DHT22;28708;52.224;6.924;2023-04-06T03:47:18;1.80;99.90
43087;DHT22;28708;52.224;6.924;2023-04-06T03:49:44;1.90;99.90
43087;DHT22;28708;52.224;6.924;2023-04-06T03:52:12;1.70;99.90
43087;DHT22;28708;52.224;6.924;2023-04-06T03:54:37;1.70;99.90
43087;DHT22;28708;52.224;6.924;2023-04-06T03:57:04;1.70;99.90
43087;DHT22;28708;52.224;6.924;2023-04-06T03:59:30;1.70;99.90
43087;DHT22;28708;52.224;6.924;2023-04-06T04:01:55;1.70;99.90
43087;DHT22;28708;52.224;6.924;2023-04-06T04:04:21;1.60;99.90
43087;DHT22;28708;52.224;6.924;2023-04-06T04:06:47;1.70;99.90
43087;DHT22;28708;52.224;6.924;2023-04-06T04:09:12;1.60;99.90
43087;DHT22;28708;52.224;6.924;2023-04-06T04:11:38;1.50;99.90
43087;DHT22;28708;52.224;6.924;2023-04-06T04:14:04;1.60;99.90
43087;DHT22;28708;52.224;6.924;2023-04-06T04:16:29;1.60;99.90
43087;DHT22;28708;52.224;6.924;2023-04-06T04:18:56;1.60;99.90
43087;DHT22;28708;52.224;6.924;2023-04-06T04:21:23;1.60;99.90
43087;DHT22;28708;52.224;6.924;2023-04-06T04:23:49;1.60;99.90
43087;DHT22;28708;52.224;6.924;2023-04-06T04:26:15;1.60;99.90
43087;DHT22;28708;52.224;6.924;2023-04-06T04:28:44;1.70;99.90
43087;DHT22;28708;52.224;6.924;2023-04-06T04:31:10;1.60;99.90
43087;DHT22;28708;52.224;6.924;2023-04-06T04:33:36;1.50;99.90
43087;DHT22;28708;52.224;6.924;2023-04-06T04:36:07;1.60;99.90
43087;DHT22;28708;52.224;6.924;2023-04-06T04:38:38;1.50;99.90
43087;DHT22;28708;52.224;6.924;2023-04-06T04:41:04;1.50;99.90
43087;DHT22;28708;52.224;6.924;2023-04-06T04:43:31;1.40;99.90
43087;DHT22;28708;52.224;6.924;2023-04-06T04:45:59;1.40;99.90
43087;DHT22;28708;52.224;6.924;2023-04-06T04:48:39;1.40;99.90
43087;DHT22;28708;52.224;6.924;2023-04-06T04:51:06;1.40;99.90
43087;DHT22;28708;52.224;6.924;2023-04-06T04:53:45;1.30;99.90
43087;DHT22;28708;52.224;6.924;2023-04-06T04:56:19;1.20;99.90
43087;DHT22;28708;52.224;6.924;2023-04-06T04:58:49;1.30;99.90
43087;DHT22;28708;52.224;6.924;2023-04-06T05:01:14;1.40;99.90
43087;DHT22;28708;52.224;6.924;2023-04-06T05:03:42;1.40;99.90
43087;DHT22;28708;52.224;6.924;2023-04-06T05:06:11;1.40;99.90
43087;DHT22;28708;52.224;6.924;2023-04-06T05:08:38;1.30;99.90
43087;DHT22;28708;52.224;6.924;2023-04-06T05:11:04;1.40;99.90
43087;DHT22;28708;52.224;6.924;2023-04-06T05:13:35;1.40;99.90
43087;DHT22;28708;52.224;6.924;2023-04-06T05:16:07;1.40;99.90
43087;DHT22;28708;52.224;6.924;2023-04-06T05:18:33;1.40;99.90
43087;DHT22;28708;52.224;6.924;2023-04-06T05:21:00;1.50;99.90
43087;DHT22;28708;52.224;6.924;2023-04-06T05:23:37;1.40;99.90
43087;DHT22;28708;52.224;6.924;2023-04-06T05:26:03;1.50;99.90
43087;DHT22;28708;52.224;6.924;2023-04-06T05:28:30;1.50;99.90
43087;DHT22;28708;52.224;6.924;2023-04-06T05:30:56;1.50;99.90
43087;DHT22;28708;52.224;6.924;2023-04-06T05:33:22;1.50;99.90
43087;DHT22;28708;52.224;6.924;2023-04-06T05:35:59;1.60;99.90
43087;DHT22;28708;52.224;6.924;2023-04-06T05:38:26;1.60;99.90
43087;DHT22;28708;52.224;6.924;2023-04-06T05:40:54;1.70;99.90
43087;DHT22;28708;52.224;6.924;2023-04-06T05:43:23;1.80;99.90
43087;DHT22;28708;52.224;6.924;2023-04-06T05:45:53;1.90;99.90
43087;DHT22;28708;52.224;6.924;2023-04-06T05:48:19;2.00;99.90
43087;DHT22;28708;52.224;6.924;2023-04-06T05:50:49;2.00;99.90
43087;DHT22;28708;52.224;6.924;2023-04-06T05:53:17;2.10;99.90
43087;DHT22;28708;52.224;6.924;2023-04-06T05:55:51;2.10;99.90
43087;DHT22;28708;52.224;6.924;2023-04-06T05:58:19;2.20;99.90
43087;DHT22;28708;52.224;6.924;2023-04-06T06:00:46;2.20;99.90
43087;DHT22;28708;52.224;6.924;2023-04-06T06:03:14;2.30;99.90
43087;DHT22;28708;52.224;6.924;2023-04-06T06:05:45;2.40;99.90
43087;DHT22;28708;52.224;6.924;2023-04-06T06:08:17;2.40;99.90
43087;DHT22;28708;52.224;6.924;2023-04-06T06:10:43;2.50;99.90
43087;DHT22;28708;52.224;6.924;2023-04-06T06:13:11;2.60;99.90
43087;DHT22;28708;52.224;6.924;2023-04-06T06:15:36;2.60;99.90
43087;DHT22;28708;52.224;6.924;2023-04-06T06:18:02;2.80;99.90
43087;DHT22;28708;52.224;6.924;2023-04-06T06:20:29;2.80;99.90
43087;DHT22;28708;52.224;6.924;2023-04-06T06:22:58;2.90;99.90
43087;DHT22;28708;52.224;6.924;2023-04-06T06:25:23;2.90;99.90
43087;DHT22;28708;52.224;6.924;2023-04-06T06:27:50;3.00;99.90
43087;DHT22;28708;52.224;6.924;2023-04-06T06:30:19;3.00;99.90
43087;DHT22;28708;52.224;6.924;2023-04-06T06:32:45;3.10;99.90
43087;DHT22;28708;52.224;6.924;2023-04-06T06:35:11;3.10;99.90
43087;DHT22;28708;52.224;6.924;2023-04-06T06:37:37;3.20;99.90
43087;DHT22;28708;52.224;6.924;2023-04-06T06:40:04;3.30;99.90
43087;DHT22;28708;52.224;6.924;2023-04-06T06:42:32;3.30;99.90
43087;DHT22;28708;52.224;6.924;2023-04-06T06:45:07;3.40;99.90
43087;DHT22;28708;52.224;6.924;2023-04-06T06:47:33;3.60;99.90
43087;DHT22;28708;52.224;6.924;2023-04-06T06:49:59;3.70;99.90
43087;DHT22;28708;52.224;6.924;2023-04-06T06:52:25;3.90;99.90
43087;DHT22;28708;52.224;6.924;2023-04-06T06:54:50;3.80;99.90
43087;DHT22;28708;52.224;6.924;2023-04-06T06:57:18;4.00;99.90
43087;DHT22;28708;52.224;6.924;2023-04-06T06:59:45;4.10;99.90
43087;DHT22;28708;52.224;6.924;2023-04-06T07:02:12;4.20;99.90
43087;DHT22;28708;52.224;6.924;2023-04-06T07:04:37;4.30;99.90
43087;DHT22;28708;52.224;6.924;2023-04-06T07:07:03;4.30;99.90
43087;DHT22;28708;52.224;6.924;2023-04-06T07:09:29;4.40;99.90
43087;DHT22;28708;52.224;6.924;2023-04-06T07:11:55;4.50;99.90
43087;DHT22;28708;52.224;6.924;2023-04-06T07:14:22;4.50;99.90
43087;DHT22;28708;52.224;6.924;2023-04-06T07:16:47;4.70;99.90
43087;DHT22;28708;52.224;6.924;2023-04-06T07:19:15;4.80;99.90
43087;DHT22;28708;52.224;6.924;2023-04-06T07:21:41;4.90;99.90
43087;DHT22;28708;52.224;6.924;2023-04-06T07:24:07;4.90;99.90
43087;DHT22;28708;52.224;6.924;2023-04-06T07:26:32;5.10;99.90
43087;DHT22;28708;52.224;6.924;2023-04-06T07:28:58;5.20;99.90
43087;DHT22;28708;52.224;6.924;2023-04-06T07:31:24;5.30;99.90
43087;DHT22;28708;52.224;6.924;2023-04-06T07:33:52;5.40;99.90
43087;DHT22;28708;52.224;6.924;2023-04-06T07:36:18;5.60;99.90
43087;DHT22;28708;52.224;6.924;2023-04-06T07:38:43;5.70;99.90
43087;DHT22;28708;52.224;6.924;2023-04-06T07:41:11;5.80;99.90
43087;DHT22;28708;52.224;6.924;2023-04-06T07:43:37;6.00;99.90
43087;DHT22;28708;52.224;6.924;2023-04-06T07:46:04;6.10;99.90
43087;DHT22;28708;52.224;6.924;2023-04-06T07:48:30;6.10;99.90
43087;DHT22;28708;52.224;6.924;2023-04-06T07:51:03;6.10;99.90
43087;DHT22;28708;52.224;6.924;2023-04-06T07:53:30;6.50;99.90
43087;DHT22;28708;52.224;6.924;2023-04-06T07:55:57;6.70;99.90
43087;DHT22;28708;52.224;6.924;2023-04-06T07:58:23;6.80;99.90
43087;DHT22;28708;52.224;6.924;2023-04-06T08:00:49;7.00;99.90
43087;DHT22;28708;52.224;6.924;2023-04-06T08:03:15;7.00;99.90
43087;DHT22;28708;52.224;6.924;2023-04-06T08:05:42;7.10;99.90
43087;DHT22;28708;52.224;6.924;2023-04-06T08:08:08;7.20;99.90
43087;DHT22;28708;52.224;6.924;2023-04-06T08:10:34;7.50;99.90
43087;DHT22;28708;52.224;6.924;2023-04-06T08:13:00;7.40;99.90
43087;DHT22;28708;52.224;6.924;2023-04-06T08:15:26;7.60;99.90
43087;DHT22;28708;52.224;6.924;2023-04-06T08:17:51;7.80;99.90
43087;DHT22;28708;52.224;6.924;2023-04-06T08:20:17;8.00;99.90
43087;DHT22;28708;52.224;6.924;2023-04-06T08:22:43;8.10;99.90
43087;DHT22;28708;52.224;6.924;2023-04-06T08:25:09;8.00;99.90
43087;DHT22;28708;52.224;6.924;2023-04-06T08:27:35;8.20;99.90
43087;DHT22;28708;52.224;6.924;2023-04-06T08:30:00;8.30;99.90
43087;DHT22;28708;52.224;6.924;2023-04-06T08:32:26;8.50;99.90
43087;DHT22;28708;52.224;6.924;2023-04-06T08:34:55;8.70;99.90
43087;DHT22;28708;52.224;6.924;2023-04-06T08:37:22;8.70;99.90
43087;DHT22;28708;52.224;6.924;2023-04-06T08:39:47;9.00;99.90
43087;DHT22;28708;52.224;6.924;2023-04-06T08:42:21;9.20;99.90
43087;DHT22;28708;52.224;6.924;2023-04-06T08:44:48;9.40;99.90
43087;DHT22;28708;52.224;6.924;2023-04-06T08:47:14;9.50;99.90
43087;DHT22;28708;52.224;6.924;2023-04-06T08:49:40;9.70;99.90
43087;DHT22;28708;52.224;6.924;2023-04-06T08:52:07;9.70;99.90
43087;DHT22;28708;52.224;6.924;2023-04-06T08:54:36;9.80;99.90
43087;DHT22;28708;52.224;6.924;2023-04-06T08:57:03;10.00;99.90
43087;DHT22;28708;52.224;6.924;2023-04-06T08:59:30;10.30;99.90
43087;DHT22;28708;52.224;6.924;2023-04-06T09:01:56;10.30;99.90
43087;DHT22;28708;52.224;6.924;2023-04-06T09:04:22;10.50;99.90
43087;DHT22;28708;52.224;6.924;2023-04-06T09:06:48;10.70;99.90
43087;DHT22;28708;52.224;6.924;2023-04-06T09:09:15;10.80;99.90
43087;DHT22;28708;52.224;6.924;2023-04-06T09:11:45;10.70;99.90
43087;DHT22;28708;52.224;6.924;2023-04-06T09:14:12;11.20;99.90
43087;DHT22;28708;52.224;6.924;2023-04-06T09:16:41;11.30;99.90
43087;DHT22;28708;52.224;6.924;2023-04-06T09:19:08;11.50;99.70
43087;DHT22;28708;52.224;6.924;2023-04-06T09:21:34;11.20;99.30
43087;DHT22;28708;52.224;6.924;2023-04-06T09:24:02;11.40;97.60
43087;DHT22;28708;52.224;6.924;2023-04-06T09:26:29;11.20;97.50
43087;DHT22;28708;52.224;6.924;2023-04-06T09:28:56;11.10;96.90
43087;DHT22;28708;52.224;6.924;2023-04-06T09:31:23;11.00;97.40
43087;DHT22;28708;52.224;6.924;2023-04-06T09:33:49;11.30;96.40
43087;DHT22;28708;52.224;6.924;2023-04-06T09:36:15;11.50;95.90
43087;DHT22;28708;52.224;6.924;2023-04-06T09:38:58;11.50;95.90
43087;DHT22;28708;52.224;6.924;2023-04-06T09:44:11;11.40;94.70
43087;DHT22;28708;52.224;6.924;2023-04-06T09:46:39;11.70;95.40
43087;DHT22;28708;52.224;6.924;2023-04-06T09:49:06;11.60;93.40
43087;DHT22;28708;52.224;6.924;2023-04-06T09:51:46;11.70;93.80
43087;DHT22;28708;52.224;6.924;2023-04-06T09:54:21;12.20;93.40
43087;DHT22;28708;52.224;6.924;2023-04-06T09:59:47;12.30;90.90
43087;DHT22;28708;52.224;6.924;2023-04-06T10:07:57;12.60;89.10
43087;DHT22;28708;52.224;6.924;2023-04-06T10:10:24;12.70;89.20
43087;DHT22;28708;52.224;6.924;2023-04-06T10:12:50;12.60;88.60
43087;DHT22;28708;52.224;6.924;2023-04-06T10:15:17;12.90;87.70
43087;DHT22;28708;52.224;6.924;2023-04-06T10:17:43;13.30;86.80
43087;DHT22;28708;52.224;6.924;2023-04-06T10:20:13;13.40;84.40
43087;DHT22;28708;52.224;6.924;2023-04-06T10:23:02;13.30;85.20
43087;DHT22;28708;52.224;6.924;2023-04-06T10:25:30;13.60;83.10
43087;DHT22;28708;52.224;6.924;2023-04-06T10:28:08;13.50;82.50
43087;DHT22;28708;52.224;6.924;2023-04-06T10:30:34;14.20;81.80
43087;DHT22;28708;52.224;6.924;2023-04-06T10:33:01;14.50;80.00
43087;DHT22;28708;52.224;6.924;2023-04-06T10:35:37;14.80;77.10
43087;DHT22;28708;52.224;6.924;2023-04-06T10:38:06;15.40;77.30
43087;DHT22;28708;52.224;6.924;2023-04-06T10:40:36;16.50;73.40
43087;DHT22;28708;52.224;6.924;2023-04-06T10:43:18;16.10;71.70
43087;DHT22;28708;52.224;6.924;2023-04-06T10:45:44;15.10;73.80
43087;DHT22;28708;52.224;6.924;2023-04-06T10:48:19;15.20;74.50
43087;DHT22;28708;52.224;6.924;2023-04-06T10:50:48;15.50;71.70
43087;DHT22;28708;52.224;6.924;2023-04-06T10:53:24;15.50;71.30
43087;DHT22;28708;52.224;6.924;2023-04-06T10:55:51;15.50;70.70
43087;DHT22;28708;52.224;6.924;2023-04-06T10:58:17;15.30;71.20
43087;DHT22;28708;52.224;6.924;2023-04-06T11:00:47;15.10;72.20
43087;DHT22;28708;52.224;6.924;2023-04-06T11:03:14;14.30;72.40
43087;DHT22;28708;52.224;6.924;2023-04-06T11:05:50;13.70;72.60
43087;DHT22;28708;52.224;6.924;2023-04-06T11:08:24;14.20;73.10
43087;DHT22;28708;52.224;6.924;2023-04-06T11:10:50;14.80;71.70
43087;DHT22;28708;52.224;6.924;2023-04-06T11:13:15;15.00;72.10
43087;DHT22;28708;52.224;6.924;2023-04-06T11:15:41;15.10;72.30
43087;DHT22;28708;52.224;6.924;2023-04-06T11:18:07;15.00;71.90
43087;DHT22;28708;52.224;6.924;2023-04-06T11:20:32;15.10;69.90
43087;DHT22;28708;52.224;6.924;2023-04-06T11:22:58;15.10;71.90
43087;DHT22;28708;52.224;6.924;2023-04-06T11:25:25;15.30;69.90
43087;DHT22;28708;52.224;6.924;2023-04-06T11:27:53;15.00;68.80
43087;DHT22;28708;52.224;6.924;2023-04-06T11:30:19;15.70;69.40
43087;DHT22;28708;52.224;6.924;2023-04-06T11:32:45;16.10;68.20
43087;DHT22;28708;52.224;6.924;2023-04-06T11:35:22;15.50;67.80
43087;DHT22;28708;52.224;6.924;2023-04-06T11:37:51;15.60;69.00
43087;DHT22;28708;52.224;6.924;2023-04-06T11:40:23;15.30;68.10
43087;DHT22;28708;52.224;6.924;2023-04-06T11:42:54;15.00;68.70
43087;DHT22;28708;52.224;6.924;2023-04-06T11:45:20;15.10;68.70
43087;DHT22;28708;52.224;6.924;2023-04-06T11:47:55;15.10;70.20
43087;DHT22;28708;52.224;6.924;2023-04-06T11:50:22;14.70;70.10
43087;DHT22;28708;52.224;6.924;2023-04-06T11:52:58;14.70;70.10
43087;DHT22;28708;52.224;6.924;2023-04-06T11:55:25;14.70;70.60
43087;DHT22;28708;52.224;6.924;2023-04-06T11:57:51;14.50;70.10
43087;DHT22;28708;52.224;6.924;2023-04-06T12:00:17;14.60;72.10
43087;DHT22;28708;52.224;6.924;2023-04-06T12:02:46;14.50;71.10
43087;DHT22;28708;52.224;6.924;2023-04-06T12:05:12;14.50;71.30
43087;DHT22;28708;52.224;6.924;2023-04-06T12:07:38;14.40;70.70
43087;DHT22;28708;52.224;6.924;2023-04-06T12:10:04;14.50;70.70
43087;DHT22;28708;52.224;6.924;2023-04-06T12:12:30;14.50;70.80
43087;DHT22;28708;52.224;6.924;2023-04-06T12:14:57;14.50;70.80
43087;DHT22;28708;52.224;6.924;2023-04-06T12:17:23;14.60;71.90
43087;DHT22;28708;52.224;6.924;2023-04-06T12:19:49;14.50;70.80
43087;DHT22;28708;52.224;6.924;2023-04-06T12:22:14;14.40;72.00
43087;DHT22;28708;52.224;6.924;2023-04-06T12:24:40;14.30;71.70
43087;DHT22;28708;52.224;6.924;2023-04-06T12:27:06;14.10;72.40
43087;DHT22;28708;52.224;6.924;2023-04-06T12:29:32;13.60;73.00
43087;DHT22;28708;52.224;6.924;2023-04-06T12:31:58;13.80;73.30
43087;DHT22;28708;52.224;6.924;2023-04-06T12:34:23;13.50;73.80
43087;DHT22;28708;52.224;6.924;2023-04-06T12:36:49;13.50;73.60
43087;DHT22;28708;52.224;6.924;2023-04-06T12:39:15;13.40;74.20
43087;DHT22;28708;52.224;6.924;2023-04-06T12:41:42;13.50;74.50
43087;DHT22;28708;52.224;6.924;2023-04-06T12:44:07;13.60;73.90
43087;DHT22;28708;52.224;6.924;2023-04-06T12:46:33;13.70;74.10
43087;DHT22;28708;52.224;6.924;2023-04-06T12:48:59;13.20;74.30
43087;DHT22;28708;52.224;6.924;2023-04-06T12:51:28;13.20;75.30
43087;DHT22;28708;52.224;6.924;2023-04-06T12:53:54;13.00;75.60
43087;DHT22;28708;52.224;6.924;2023-04-06T12:56:20;13.20;75.20
43087;DHT22;28708;52.224;6.924;2023-04-06T12:58:50;13.00;74.90
43087;DHT22;28708;52.224;6.924;2023-04-06T13:01:16;13.10;75.90
43087;DHT22;28708;52.224;6.924;2023-04-06T13:03:42;13.00;76.30
43087;DHT22;28708;52.224;6.924;2023-04-06T13:06:08;13.10;77.20
43087;DHT22;28708;52.224;6.924;2023-04-06T13:08:34;13.30;76.90
43087;DHT22;28708;52.224;6.924;2023-04-06T13:11:01;13.40;76.30
43087;DHT22;28708;52.224;6.924;2023-04-06T13:13:28;13.30;77.60
43087;DHT22;28708;52.224;6.924;2023-04-06T13:16:00;12.80;80.00
43087;DHT22;28708;52.224;6.924;2023-04-06T13:18:26;12.80;81.30
43087;DHT22;28708;52.224;6.924;2023-04-06T13:20:52;12.70;82.60
43087;DHT22;28708;52.224;6.924;2023-04-06T13:23:18;12.90;83.00
43087;DHT22;28708;52.224;6.924;2023-04-06T13:25:43;12.60;83.30
43087;DHT22;28708;52.224;6.924;2023-04-06T13:28:10;12.50;83.90
43087;DHT22;28708;52.224;6.924;2023-04-06T13:30:35;12.60;84.10
43087;DHT22;28708;52.224;6.924;2023-04-06T13:33:01;12.70;84.50
43087;DHT22;28708;52.224;6.924;2023-04-06T13:35:27;12.60;84.00
43087;DHT22;28708;52.224;6.924;2023-04-06T13:37:53;12.60;84.20
43087;DHT22;28708;52.224;6.924;2023-04-06T13:40:19;12.30;84.20
43087;DHT22;28708;52.224;6.924;2023-04-06T13:42:44;12.20;84.80
43087;DHT22;28708;52.224;6.924;2023-04-06T13:45:11;12.30;85.90
43087;DHT22;28708;52.224;6.924;2023-04-06T13:47:37;12.20;85.40
43087;DHT22;28708;52.224;6.924;2023-04-06T13:50:03;12.30;84.40
43087;DHT22;28708;52.224;6.924;2023-04-06T13:52:29;12.50;83.40
43087;DHT22;28708;52.224;6.924;2023-04-06T13:54:55;12.60;82.70
43087;DHT22;28708;52.224;6.924;2023-04-06T13:57:21;12.60;82.00
43087;DHT22;28708;52.224;6.924;2023-04-06T13:59:46;12.50;81.70
43087;DHT22;28708;52.224;6.924;2023-04-06T14:02:12;12.30;82.60
43087;DHT22;28708;52.224;6.924;2023-04-06T14:04:38;12.30;87.40
43087;DHT22;28708;52.224;6.924;2023-04-06T14:07:04;12.10;85.20
43087;DHT22;28708;52.224;6.924;2023-04-06T14:09:32;12.10;84.80
43087;DHT22;28708;52.224;6.924;2023-04-06T14:11:59;12.00;86.00
43087;DHT22;28708;52.224;6.924;2023-04-06T14:14:24;12.20;85.30
43087;DHT22;28708;52.224;6.924;2023-04-06T14:16:51;12.20;85.90
43087;DHT22;28708;52.224;6.924;2023-04-06T14:19:17;12.10;87.10
43087;DHT22;28708;52.224;6.924;2023-04-06T14:21:47;11.90;86.60
43087;DHT22;28708;52.224;6.924;2023-04-06T14:24:14;11.90;88.10
43087;DHT22;28708;52.224;6.924;2023-04-06T14:26:40;11.60;88.50
43087;DHT22;28708;52.224;6.924;2023-04-06T14:29:10;11.40;88.90
43087;DHT22;28708;52.224;6.924;2023-04-06T14:31:35;11.50;88.50
43087;DHT22;28708;52.224;6.924;2023-04-06T14:34:02;11.60;89.40
43087;DHT22;28708;52.224;6.924;2023-04-06T14:36:29;11.50;90.00
43087;DHT22;28708;52.224;6.924;2023-04-06T14:39:02;11.70;90.40
43087;DHT22;28708;52.224;6.924;2023-04-06T14:41:30;11.60;90.50
43087;DHT22;28708;52.224;6.924;2023-04-06T14:43:56;11.50;91.20
43087;DHT22;28708;52.224;6.924;2023-04-06T14:46:22;11.40;91.40
43087;DHT22;28708;52.224;6.924;2023-04-06T14:48:47;11.40;91.90
43087;DHT22;28708;52.224;6.924;2023-04-06T14:51:13;11.30;92.50
43087;DHT22;28708;52.224;6.924;2023-04-06T14:53:39;11.20;92.50
43087;DHT22;28708;52.224;6.924;2023-04-06T14:56:05;11.30;93.00
43087;DHT22;28708;52.224;6.924;2023-04-06T14:58:30;11.10;95.50
43087;DHT22;28708;52.224;6.924;2023-04-06T15:00:59;10.70;97.50
43087;DHT22;28708;52.224;6.924;2023-04-06T15:03:29;10.50;99.90
43087;DHT22;28708;52.224;6.924;2023-04-06T15:05:56;10.30;99.90
43087;DHT22;28708;52.224;6.924;2023-04-06T15:08:22;10.20;99.90
43087;DHT22;28708;52.224;6.924;2023-04-06T15:10:48;10.00;99.90
43087;DHT22;28708;52.224;6.924;2023-04-06T15:13:15;9.80;99.90
43087;DHT22;28708;52.224;6.924;2023-04-06T15:15:41;9.70;99.90
43087;DHT22;28708;52.224;6.924;2023-04-06T15:18:07;9.60;99.90
43087;DHT22;28708;52.224;6.924;2023-04-06T15:20:33;9.60;99.90
43087;DHT22;28708;52.224;6.924;2023-04-06T15:23:00;9.60;99.90
43087;DHT22;28708;52.224;6.924;2023-04-06T15:25:26;9.60;99.90
43087;DHT22;28708;52.224;6.924;2023-04-06T15:27:51;9.60;99.90
43087;DHT22;28708;52.224;6.924;2023-04-06T15:30:17;9.50;99.90
43087;DHT22;28708;52.224;6.924;2023-04-06T15:32:55;9.50;99.90
43087;DHT22;28708;52.224;6.924;2023-04-06T15:35:21;9.60;99.90
43087;DHT22;28708;52.224;6.924;2023-04-06T15:37:46;9.50;99.90
43087;DHT22;28708;52.224;6.924;2023-04-06T15:40:12;9.50;99.90
43087;DHT22;28708;52.224;6.924;2023-04-06T15:42:39;9.50;99.90
43087;DHT22;28708;52.224;6.924;2023-04-06T15:45:07;9.40;99.90
43087;DHT22;28708;52.224;6.924;2023-04-06T15:47:33;9.40;99.90
43087;DHT22;28708;52.224;6.924;2023-04-06T15:49:59;9.30;99.90
43087;DHT22;28708;52.224;6.924;2023-04-06T15:52:24;9.20;99.90
43087;DHT22;28708;52.224;6.924;2023-04-06T15:54:50;9.20;99.90